Time;durP1;ratioP1;P1;durP2;ratioP2;P2;SDS_P1;SDS_P2;PMS_P1;PMS_P2;Temp;Humidity;BMP_temperature;BMP_pressure;BME280_temperature;BME280_humidity;BME280_pressure;Samples;Min_cycle;Max_cycle;Signal;HPM_P1;HPM_P2
2022/02/05 00:01:13;;;;;;;18.23;15.15;;;;;;;3.96;100.00;96128.81;5012335;28;20033;-62
2022/02/05 00:03:43;;;;;;;23.35;15.82;;;;;;;3.93;100.00;96134.19;5012804;28;20032;-62
2022/02/05 00:06:10;;;;;;;16.10;14.43;;;;;;;3.92;100.00;96131.66;5012603;28;20029;-62
2022/02/05 00:08:56;;;;;;;17.33;15.52;;;;;;;3.86;100.00;96133.72;5012243;28;20034;-62
2022/02/05 00:43:05;;;;;;;17.23;15.48;;;;;;;3.77;100.00;96133.41;5010963;28;20029;-62
2022/02/05 00:45:34;;;;;;;16.88;15.15;;;;;;;3.79;100.00;96136.75;5011559;28;20096;-61
2022/02/05 00:48:02;;;;;;;16.60;14.88;;;;;;;3.84;100.00;96139.94;5011701;28;20060;-62
2022/02/05 00:50:29;;;;;;;16.48;14.63;;;;;;;3.75;100.00;96141.31;5012198;28;20029;-61
2022/02/05 00:53:02;;;;;;;15.13;13.68;;;;;;;3.71;100.00;96140.66;5011616;28;20113;-62
2022/02/05 00:55:32;;;;;;;17.45;14.27;;;;;;;3.65;100.00;96135.81;5011510;28;20452;-62
2022/02/05 00:58:02;;;;;;;16.98;14.68;;;;;;;3.58;100.00;96134.47;5011378;28;20021;-61
2022/02/05 01:00:29;;;;;;;16.90;13.65;;;;;;;3.51;100.00;96128.75;5011582;28;20052;-62
2022/02/05 01:02:55;;;;;;;16.60;13.85;;;;;;;3.48;100.00;96128.13;5011506;28;20037;-62
2022/02/05 01:05:20;;;;;;;17.50;15.30;;;;;;;3.40;100.00;96121.56;5010670;28;20017;-62
2022/02/05 01:07:46;;;;;;;15.68;14.02;;;;;;;3.35;100.00;96126.19;5013525;28;20044;-62
2022/02/05 01:10:13;;;;;;;16.75;13.20;;;;;;;3.24;100.00;96134.63;5011367;28;20080;-62
2022/02/05 01:12:43;;;;;;;14.18;12.80;;;;;;;3.14;100.00;96139.50;5008974;28;20061;-62
2022/02/05 01:15:08;;;;;;;15.25;13.65;;;;;;;3.03;100.00;96139.25;5011166;28;20026;-62
2022/02/05 01:17:43;;;;;;;14.43;12.93;;;;;;;3.01;100.00;96133.31;5011065;28;20452;-62
2022/02/05 01:22:56;;;;;;;12.97;11.47;;;;;;;2.83;100.00;96146.38;5011528;28;20036;-61
2022/02/05 01:25:26;;;;;;;15.75;12.57;;;;;;;2.73;100.00;96152.97;4996744;28;20057;-62
2022/02/05 01:28:00;;;;;;;16.65;12.68;;;;;;;2.70;100.00;96158.34;5011147;28;20105;-61
2022/02/05 01:30:34;;;;;;;13.00;11.63;;;;;;;2.68;100.00;96160.19;5007415;28;20033;-61
2022/02/05 01:33:15;;;;;;;14.75;13.25;;;;;;;2.67;100.00;96161.97;5010969;28;20029;-62
2022/02/05 01:52:26;;;;;;;12.27;11.13;;;;;;;2.72;100.00;96172.09;5009852;28;20383;-62
2022/02/05 01:55:52;;;;;;;12.82;11.52;;;;;;;2.74;100.00;96175.47;5007619;28;20064;-62
2022/02/05 02:14:03;;;;;;;16.60;12.02;;;;;;;2.77;100.00;96170.13;5010696;28;20567;-62
2022/02/05 02:16:45;;;;;;;12.90;11.45;;;;;;;2.77;100.00;96167.53;5010742;28;20026;-62
2022/02/05 02:21:46;;;;;;;14.18;12.52;;;;;;;2.86;100.00;96169.63;5014456;28;20030;-62
2022/02/05 02:24:22;;;;;;;12.73;11.52;;;;;;;2.85;100.00;96167.94;5013440;28;20645;-62
2022/02/05 02:27:03;;;;;;;;;;;;;;;2.86;100.00;96158.38;5013188;28;20083;-61
2022/02/05 02:29:53;;;;;;;14.00;12.07;;;;;;;2.85;100.00;96161.88;5014594;28;19913;-62
2022/02/05 02:32:14;;;;;;;12.82;11.15;;;;;;;2.86;100.00;96164.41;5012650;28;20743;-62
2022/02/05 02:34:45;;;;;;;13.55;12.15;;;;;;;2.88;100.00;96168.69;5014379;28;20060;-62
2022/02/05 02:37:17;;;;;;;13.82;12.43;;;;;;;2.91;100.00;96155.53;5014015;28;20026;-62
2022/02/05 02:42:27;;;;;;;12.75;11.30;;;;;;;2.94;100.00;96165.75;5013907;28;20040;-61
2022/02/05 02:44:52;;;;;;;13.98;12.57;;;;;;;2.89;100.00;96166.03;5013918;28;20030;-61
2022/02/05 02:47:17;;;;;;;16.90;12.45;;;;;;;2.87;100.00;96165.25;5013845;28;20025;-61
2022/02/05 02:50:01;;;;;;;14.52;12.80;;;;;;;2.88;100.00;96166.94;5013841;28;20509;-62
2022/02/05 02:58:02;;;;;;;18.63;13.57;;;;;;;2.83;100.00;96174.13;5006646;28;20042;-62
2022/02/05 03:00:27;;;;;;;17.45;13.60;;;;;;;2.80;100.00;96174.31;5013544;28;20033;-62
2022/02/05 03:02:54;;;;;;;17.05;13.60;;;;;;;2.76;100.00;96173.63;5013662;28;20073;-62
2022/02/05 06:56:15;;;;;;;16.65;14.07;;;;;;;1.24;100.00;96285.78;5049930;28;20059;-62
2022/02/05 06:58:40;;;;;;;20.58;17.80;;;;;;;1.23;100.00;96289.31;5063523;28;20049;-63
2022/02/05 07:01:06;;;;;;;19.08;17.15;;;;;;;1.21;100.00;96287.69;5063604;28;20040;-62
2022/02/05 07:03:31;;;;;;;17.65;15.57;;;;;;;1.18;100.00;96290.41;5061796;28;20025;-62
2022/02/05 07:05:59;;;;;;;20.25;17.92;;;;;;;1.16;100.00;96293.09;5062685;28;20032;-62
2022/02/05 07:08:25;;;;;;;19.88;17.85;;;;;;;1.18;100.00;96295.59;5060972;28;20032;-61
2022/02/05 07:10:51;;;;;;;17.63;15.90;;;;;;;1.17;100.00;96299.09;5061172;28;20036;-61
2022/02/05 07:13:19;;;;;;;16.67;14.93;;;;;;;1.13;100.00;96299.25;5062976;28;20120;-62
2022/02/05 07:16:34;;;;;;;15.93;14.30;;;;;;;1.04;100.00;96297.09;5062129;28;20450;-62
2022/02/05 07:21:11;;;;;;;17.40;15.18;;;;;;;0.96;100.00;96304.34;5060722;28;20047;-62
2022/02/05 07:31:36;;;;;;;20.13;18.10;;;;;;;0.87;100.00;96307.34;5062583;28;20043;-62
2022/02/05 07:34:01;;;;;;;22.27;19.30;;;;;;;0.81;100.00;96305.88;5062013;28;20033;-62
2022/02/05 07:36:27;;;;;;;21.00;18.17;;;;;;;0.75;100.00;96312.16;5063059;28;20029;-63
2022/02/05 07:38:52;;;;;;;20.15;18.17;;;;;;;0.67;100.00;96302.13;5057767;28;20408;-62
2022/02/05 07:41:17;;;;;;;17.08;15.48;;;;;;;0.65;100.00;96309.09;5055322;28;20128;-62
2022/02/05 07:43:43;;;;;;;17.17;15.65;;;;;;;0.63;100.00;96315.28;5062081;28;20033;-62
2022/02/05 07:46:12;;;;;;;17.48;15.68;;;;;;;0.65;100.00;96316.06;5061923;28;20063;-63
2022/02/05 07:48:38;;;;;;;18.98;15.60;;;;;;;0.63;100.00;96325.66;5021126;28;20036;-62
2022/02/05 07:51:04;;;;;;;15.80;14.30;;;;;;;0.64;100.00;96322.16;5061626;28;20037;-62
2022/02/05 07:53:31;;;;;;;16.75;14.07;;;;;;;0.62;100.00;96324.78;5062579;28;20080;-59
2022/02/05 07:55:56;;;;;;;17.30;13.80;;;;;;;0.61;100.00;96320.50;5068104;28;20093;-60
2022/02/05 07:58:22;;;;;;;16.17;14.27;;;;;;;0.61;100.00;96324.88;5060143;28;20032;-60
2022/02/05 08:00:48;;;;;;;15.05;13.52;;;;;;;0.62;100.00;96322.19;5033223;28;20041;-59
2022/02/05 08:03:14;;;;;;;15.40;13.88;;;;;;;0.59;100.00;96324.94;5054146;28;20040;-59
2022/02/05 08:05:40;;;;;;;13.15;11.95;;;;;;;0.62;100.00;96327.38;5063757;28;20051;-59
2022/02/05 08:08:09;;;;;;;13.93;12.57;;;;;;;0.63;100.00;96331.66;5046207;28;20037;-59
2022/02/05 08:10:38;;;;;;;13.52;12.15;;;;;;;0.62;100.00;96326.56;5055889;28;20579;-59
2022/02/05 08:13:03;;;;;;;14.60;13.30;;;;;;;0.63;100.00;96330.84;5056302;28;20037;-59
2022/02/05 08:15:31;;;;;;;13.10;11.95;;;;;;;0.63;100.00;96336.84;5049358;28;20044;-59
2022/02/05 08:17:58;;;;;;;12.73;11.63;;;;;;;0.63;100.00;96336.00;5051814;28;20031;-59
2022/02/05 08:20:23;;;;;;;14.50;11.65;;;;;;;0.62;100.00;96334.34;5047670;28;20170;-59
2022/02/05 08:22:50;;;;;;;12.77;11.57;;;;;;;0.65;100.00;96335.03;5032833;28;20116;-58
2022/02/05 08:25:17;;;;;;;13.77;12.48;;;;;;;0.66;100.00;96336.75;5048452;28;20597;-59
2022/02/05 08:27:42;;;;;;;12.00;10.85;;;;;;;0.71;100.00;96341.69;5056944;28;20039;-59
2022/02/05 08:30:11;;;;;;;11.48;10.38;;;;;;;0.79;100.00;96347.44;5047890;28;20448;-58
2022/02/05 08:32:37;;;;;;;12.93;11.65;;;;;;;0.98;100.00;96344.00;5059386;28;20033;-58
2022/02/05 08:35:05;;;;;;;12.35;11.15;;;;;;;1.12;100.00;96346.84;5049258;28;20519;-57
2022/02/05 08:37:35;;;;;;;11.65;10.55;;;;;;;1.21;100.00;96342.16;5056736;28;20045;-58
2022/02/05 08:40:02;;;;;;;12.02;10.98;;;;;;;1.36;100.00;96345.84;5053951;28;20041;-57
2022/02/05 08:42:28;;;;;;;37.13;24.35;;;;;;;1.48;100.00;96339.25;5049445;28;20041;-58
2022/02/05 08:44:53;;;;;;;45.50;29.10;;;;;;;1.55;100.00;96338.91;5051478;28;20033;-58
2022/02/05 08:47:19;;;;;;;27.90;19.67;;;;;;;1.65;100.00;96343.66;5048102;28;20033;-58
2022/02/05 08:49:44;;;;;;;25.75;19.95;;;;;;;1.76;100.00;96330.19;5048857;28;20045;-59
2022/02/05 08:52:10;;;;;;;23.15;17.73;;;;;;;1.97;100.00;96334.34;5051759;28;20404;-58
2022/02/05 08:54:40;;;;;;;17.73;15.77;;;;;;;1.89;100.00;96333.03;5048608;28;21540;-59
2022/02/05 08:57:09;;;;;;;19.60;16.88;;;;;;;1.81;100.00;96331.66;5051939;28;20037;-59
2022/02/05 09:00:23;;;;;;;27.80;22.55;;;;;;;1.70;100.00;96326.09;5047683;28;20041;-62
2022/02/05 09:07:23;;;;;;;24.08;21.75;;;;;;;1.59;100.00;96330.97;5050613;28;20127;-59
2022/02/05 09:14:57;;;;;;;40.97;34.67;;;;;;;2.62;100.00;96321.72;5055540;28;20029;-58
2022/02/05 09:17:23;;;;;;;32.78;29.23;;;;;;;2.86;100.00;96324.81;5052677;28;20051;-58
2022/02/05 09:19:49;;;;;;;34.30;28.13;;;;;;;2.92;100.00;96328.88;5051046;28;20171;-59
2022/02/05 09:22:15;;;;;;;31.33;25.10;;;;;;;3.12;100.00;96325.25;5051679;28;20037;-58
2022/02/05 09:24:40;;;;;;;28.80;21.45;;;;;;;3.18;100.00;96327.53;5050216;28;20603;-58
2022/02/05 09:27:09;;;;;;;25.27;21.88;;;;;;;3.22;100.00;96321.22;5050331;28;20082;-58
2022/02/05 09:29:42;;;;;;;23.00;20.55;;;;;;;3.39;100.00;96320.31;5052309;28;20409;-58
2022/02/05 09:32:08;;;;;;;18.95;17.05;;;;;;;3.57;100.00;96330.69;5049681;28;20107;-58
2022/02/05 09:34:34;;;;;;;24.05;19.13;;;;;;;3.92;100.00;96333.13;5048808;28;20108;-58
2022/02/05 09:37:00;;;;;;;27.38;20.70;;;;;;;3.97;100.00;96335.44;5051304;28;20033;-58
2022/02/05 09:39:26;;;;;;;21.30;19.10;;;;;;;3.93;100.00;96337.41;5050317;28;20021;-58
2022/02/05 09:41:51;;;;;;;10.13;8.95;;;;;;;3.81;98.94;96330.25;5050884;28;20147;-58
2022/02/05 09:44:17;;;;;;;12.70;10.85;;;;;;;3.74;99.22;96340.16;5053260;28;20166;-58
2022/02/05 09:46:43;;;;;;;15.45;12.57;;;;;;;3.70;100.00;96343.88;5052969;28;20033;-59
2022/02/05 09:49:09;;;;;;;12.60;11.40;;;;;;;3.73;100.00;96341.94;5051579;28;20036;-59
2022/02/05 09:51:40;;;;;;;12.02;10.93;;;;;;;3.83;100.00;96352.72;5047881;28;20056;-59
2022/02/05 09:54:07;;;;;;;11.82;10.63;;;;;;;3.98;100.00;96352.78;5052083;28;20043;-58
2022/02/05 09:56:35;;;;;;;11.95;10.82;;;;;;;4.12;99.96;96352.03;5052528;28;20044;-58
2022/02/05 09:59:01;;;;;;;12.30;11.00;;;;;;;4.20;99.77;96362.00;5052879;28;20512;-59
2022/02/05 10:01:31;;;;;;;12.65;11.40;;;;;;;4.24;99.86;96355.72;5050336;28;20039;-59
2022/02/05 10:03:57;;;;;;;9.85;8.95;;;;;;;4.38;99.91;96367.97;5044611;28;20036;-58
2022/02/05 10:06:28;;;;;;;13.18;10.45;;;;;;;4.45;99.47;96369.28;5042682;28;20027;-59
2022/02/05 10:09:14;;;;;;;10.07;9.07;;;;;;;4.72;98.43;96368.63;5049157;28;20036;-59
2022/02/05 10:11:59;;;;;;;9.02;8.23;;;;;;;4.68;97.30;96367.13;5046465;28;20048;-59
2022/02/05 10:14:34;;;;;;;8.98;8.05;;;;;;;4.73;97.12;96373.75;5048438;28;20029;-58
2022/02/05 10:17:02;;;;;;;11.70;10.32;;;;;;;4.84;97.22;96385.31;5046901;28;20040;-58
2022/02/05 10:19:45;;;;;;;11.00;9.88;;;;;;;4.90;97.30;96378.91;5051479;28;20386;-59
2022/02/05 10:22:11;;;;;;;14.05;12.20;;;;;;;4.94;96.91;96380.41;5053750;28;20036;-59
2022/02/05 10:24:56;;;;;;;17.00;15.40;;;;;;;5.17;95.71;96379.06;5050711;28;20025;-58
2022/02/05 10:27:32;;;;;;;22.85;20.48;;;;;;;5.34;94.01;96383.25;5053107;28;20033;-58
2022/02/05 10:30:27;;;;;;;22.05;19.65;;;;;;;5.26;95.00;96385.50;5050858;28;20025;-59
2022/02/05 10:33:20;;;;;;;19.38;16.25;;;;;;;5.38;94.85;96382.13;5056368;28;20091;-59
2022/02/05 10:35:56;;;;;;;14.02;12.63;;;;;;;5.50;95.31;96383.16;5048892;28;20531;-58
2022/02/05 10:44:11;;;;;;;11.90;10.70;;;;;;;5.76;93.18;96378.13;5055077;28;20519;-59
2022/02/05 10:46:42;;;;;;;9.82;9.02;;;;;;;5.99;93.65;96368.84;5055105;28;20041;-59
2022/02/05 10:49:33;;;;;;;10.25;9.23;;;;;;;6.20;92.37;96376.28;5051781;28;20029;-59
2022/02/05 10:52:00;;;;;;;9.85;7.93;;;;;;;6.29;91.25;96369.63;5051598;28;20132;-59
2022/02/05 10:54:50;;;;;;;7.40;6.80;;;;;;;6.40;89.73;96372.38;5056973;28;20488;-59
2022/02/05 10:57:36;;;;;;;7.10;6.40;;;;;;;6.43;89.95;96366.13;5056566;28;20047;-59
2022/02/05 11:05:37;;;;;;;6.65;5.72;;;;;;;6.80;85.68;96350.63;5055028;28;20040;-58
2022/02/05 11:08:02;;;;;;;9.25;7.70;;;;;;;7.01;85.07;96340.47;5050497;28;20110;-59
2022/02/05 11:21:06;;;;;;;11.95;7.63;;;;;;;9.11;75.75;96337.91;5048188;28;20083;-59
2022/02/05 11:23:35;;;;;;;6.93;5.90;;;;;;;9.69;73.93;96332.56;5053513;28;20032;-59
2022/02/05 11:26:02;;;;;;;6.07;5.30;;;;;;;10.26;71.47;96337.69;5052428;28;20877;-61
2022/02/05 11:28:46;;;;;;;6.30;5.28;;;;;;;10.60;66.24;96331.50;5053228;28;20029;-60
2022/02/05 11:31:30;;;;;;;7.75;5.82;;;;;;;10.82;66.82;96332.38;5049849;28;20037;-60
2022/02/05 11:34:14;;;;;;;8.90;5.78;;;;;;;11.01;64.98;96329.03;5051214;28;20040;-60
2022/02/05 11:36:44;;;;;;;7.88;6.63;;;;;;;10.38;66.00;96337.69;5058951;28;20124;-59
2022/02/05 11:39:17;;;;;;;6.53;5.93;;;;;;;9.59;69.32;96328.97;5051608;28;20080;-60
2022/02/05 11:41:44;;;;;;;5.90;5.20;;;;;;;9.25;71.78;96329.78;5051291;28;20041;-60
2022/02/05 11:44:16;;;;;;;6.03;5.50;;;;;;;8.81;72.62;96324.34;5051239;28;20108;-60
2022/02/05 11:47:08;;;;;;;5.97;5.28;;;;;;;8.62;73.34;96329.31;5053170;28;20056;-63
2022/02/05 11:49:51;;;;;;;12.45;7.47;;;;;;;8.44;73.85;96329.69;5038517;28;20070;-61
2022/02/05 11:52:35;;;;;;;7.40;6.63;;;;;;;8.69;73.95;96326.09;5051716;28;20041;-61
2022/02/05 11:55:30;;;;;;;6.43;5.78;;;;;;;8.88;72.93;96330.81;5049554;28;20090;-60
2022/02/05 11:58:01;;;;;;;9.27;6.10;;;;;;;9.04;72.09;96332.28;5047777;28;20036;-60
2022/02/05 12:00:56;;;;;;;6.57;5.93;;;;;;;9.66;69.31;96332.81;5048714;28;20040;-62
2022/02/05 12:03:33;;;;;;;6.45;5.95;;;;;;;10.63;66.30;96326.00;5051122;28;20086;-62
2022/02/05 12:06:05;;;;;;;10.35;5.97;;;;;;;10.86;63.89;96323.28;5049857;28;20116;-62
2022/02/05 12:08:36;;;;;;;5.32;4.90;;;;;;;10.74;63.57;96322.50;5050214;28;20037;-62
2022/02/05 12:11:26;;;;;;;4.90;4.53;;;;;;;11.22;60.98;96322.94;5054571;28;20028;-59
2022/02/05 12:14:08;;;;;;;4.30;4.00;;;;;;;11.73;60.90;96321.22;5051591;28;20095;-62
2022/02/05 12:16:36;;;;;;;4.88;4.43;;;;;;;11.14;59.91;96326.22;5052433;28;20033;-62
2022/02/05 12:19:27;;;;;;;4.80;4.40;;;;;;;9.98;63.69;96321.50;5051866;28;20033;-61
2022/02/05 12:21:58;;;;;;;4.60;4.30;;;;;;;9.49;66.10;96335.91;5049620;28;20045;-61
2022/02/05 12:24:37;;;;;;;5.43;4.95;;;;;;;9.40;66.83;96334.81;5050414;28;20087;-62
2022/02/05 12:27:33;;;;;;;4.93;4.53;;;;;;;9.21;66.99;96345.94;5048093;28;20183;-61
2022/02/05 12:30:26;;;;;;;5.30;4.88;;;;;;;9.21;66.54;96335.41;5050680;28;20522;-61
2022/02/05 12:32:52;;;;;;;4.35;4.05;;;;;;;8.97;66.79;96337.16;5051167;28;20040;-61
2022/02/05 12:35:18;;;;;;;5.63;4.05;;;;;;;8.81;67.88;96344.50;5049888;28;20101;-61
2022/02/05 12:37:43;;;;;;;4.22;3.90;;;;;;;8.67;68.61;96341.16;5047987;28;20032;-62
2022/02/05 12:40:09;;;;;;;4.65;4.35;;;;;;;8.50;69.83;96344.16;5048795;28;20072;-62
2022/02/05 12:42:38;;;;;;;4.90;4.50;;;;;;;8.56;69.49;96352.44;5051707;28;20122;-62
2022/02/05 12:45:05;;;;;;;4.85;4.47;;;;;;;8.42;69.43;96347.31;5049939;28;20504;-62
2022/02/05 12:47:36;;;;;;;6.38;5.78;;;;;;;8.37;69.51;96339.78;5049025;28;20687;-62
2022/02/05 12:50:10;;;;;;;7.45;6.50;;;;;;;8.27;69.31;96336.97;5048811;28;20059;-62
2022/02/05 12:52:36;;;;;;;5.32;4.82;;;;;;;8.10;70.37;96346.09;5049552;28;20056;-63
2022/02/05 12:55:02;;;;;;;17.75;9.70;;;;;;;8.08;71.18;96336.66;5049420;28;20037;-63
2022/02/05 12:57:30;;;;;;;41.55;15.27;;;;;;;8.02;71.87;96341.38;5048756;28;20110;-61
2022/02/05 13:00:02;;;;;;;7.65;5.30;;;;;;;8.27;70.25;96344.03;5046189;28;20041;-62
2022/02/05 13:02:29;;;;;;;7.85;6.70;;;;;;;8.68;69.60;96337.56;5048288;28;20559;-62
2022/02/05 13:04:55;;;;;;;7.40;6.47;;;;;;;8.84;68.71;96344.28;5049239;28;20401;-62
2022/02/05 13:07:25;;;;;;;8.52;7.47;;;;;;;9.23;67.32;96344.00;5050316;28;20029;-61
2022/02/05 13:10:00;;;;;;;6.30;5.55;;;;;;;9.51;66.01;96337.47;5031545;28;20035;-62
2022/02/05 13:12:41;;;;;;;5.78;5.28;;;;;;;9.88;64.60;96342.44;5045238;28;20112;-62
2022/02/05 13:26:15;;;;;;;4.72;4.32;;;;;;;10.59;61.78;96328.06;5050437;28;20067;-62
2022/02/05 13:34:26;;;;;;;4.18;3.88;;;;;;;10.75;60.91;96339.97;5050098;28;20040;-63
2022/02/05 13:42:25;;;;;;;5.30;4.88;;;;;;;10.65;59.99;96333.78;5050983;28;20036;-62
2022/02/05 13:45:17;;;;;;;4.03;3.70;;;;;;;11.01;59.19;96340.41;5048384;28;20052;-62
2022/02/05 13:47:46;;;;;;;3.53;3.22;;;;;;;10.96;58.06;96334.69;5050728;28;20033;-62
2022/02/05 13:50:20;;;;;;;5.93;5.43;;;;;;;11.00;57.89;96337.91;5048946;28;20068;-62
2022/02/05 13:52:48;;;;;;;4.22;3.92;;;;;;;11.17;57.42;96332.06;5049005;28;20049;-63
2022/02/05 13:55:20;;;;;;;4.07;3.72;;;;;;;11.14;56.88;96331.47;5046555;28;20049;-63
2022/02/05 13:58:14;;;;;;;3.90;3.60;;;;;;;11.23;57.42;96333.31;5049821;28;20477;-63
2022/02/05 14:00:47;;;;;;;3.65;3.45;;;;;;;11.12;56.34;96341.31;5046087;28;20045;-63
2022/02/05 14:03:27;;;;;;;4.22;3.88;;;;;;;11.11;56.90;96335.19;5050967;28;20036;-63
2022/02/05 14:06:10;;;;;;;4.60;4.22;;;;;;;10.91;56.46;96338.66;5051934;28;20570;-63
2022/02/05 14:08:46;;;;;;;3.60;3.40;;;;;;;10.83;56.70;96336.66;5050216;28;20037;-63
2022/02/05 14:11:13;;;;;;;3.97;3.63;;;;;;;10.80;57.39;96344.84;5049724;28;20083;-63
2022/02/05 14:13:40;;;;;;;3.83;3.63;;;;;;;10.86;57.94;96349.63;5053267;28;20032;-63
2022/02/05 14:16:07;;;;;;;4.20;3.90;;;;;;;11.10;57.63;96349.34;5052097;28;20037;-63
2022/02/05 14:18:58;;;;;;;4.70;4.30;;;;;;;11.20;56.43;96349.41;5051848;28;20037;-63
2022/02/05 14:21:43;;;;;;;4.22;3.50;;;;;;;11.11;55.64;96350.19;5053044;28;20064;-63
2022/02/05 14:24:33;;;;;;;3.97;3.67;;;;;;;11.28;55.71;96354.03;5052673;28;20041;-63
2022/02/05 14:27:13;;;;;;;4.88;4.32;;;;;;;11.30;54.74;96355.59;5054913;28;20056;-63
2022/02/05 14:30:09;;;;;;;3.60;3.30;;;;;;;10.68;55.21;96351.94;5053882;28;20129;-63
2022/02/05 14:32:42;;;;;;;4.72;4.32;;;;;;;9.62;57.79;96355.03;5051856;28;20062;-63
2022/02/05 14:35:26;;;;;;;4.10;3.80;;;;;;;9.21;59.68;96353.81;5050303;28;20036;-63
2022/02/05 14:40:44;;;;;;;4.05;3.65;;;;;;;9.94;56.81;96350.81;5054532;28;20052;-62
2022/02/05 14:43:10;;;;;;;3.80;3.35;;;;;;;9.92;55.90;96344.84;5054908;28;20416;-63
2022/02/05 14:45:36;;;;;;;4.38;3.92;;;;;;;9.83;56.03;96346.38;5050394;28;20087;-62
2022/02/05 14:48:02;;;;;;;3.80;3.50;;;;;;;9.91;56.84;96351.03;5052889;28;20036;-63
2022/02/05 14:50:27;;;;;;;4.10;3.80;;;;;;;10.18;56.38;96350.66;5035537;28;20044;-63
2022/02/05 14:52:53;;;;;;;4.45;4.10;;;;;;;10.27;55.55;96344.63;5053737;28;20037;-63
2022/02/05 14:55:19;;;;;;;4.10;3.80;;;;;;;10.18;55.85;96350.66;5053717;28;20404;-63
2022/02/05 14:57:45;;;;;;;3.72;3.42;;;;;;;10.07;56.17;96345.44;5052144;28;20052;-63
2022/02/05 15:00:11;;;;;;;3.40;3.20;;;;;;;9.80;56.87;96349.25;5052634;28;20040;-63
2022/02/05 15:02:37;;;;;;;3.17;2.97;;;;;;;9.53;57.13;96353.97;5056427;28;20048;-62
2022/02/05 15:05:11;;;;;;;3.83;3.53;;;;;;;9.54;57.29;96355.63;5060719;28;20083;-63
2022/02/05 15:07:37;;;;;;;3.95;3.65;;;;;;;9.59;57.31;96347.38;5053268;28;20068;-64
2022/02/05 15:10:03;;;;;;;7.57;3.22;;;;;;;9.54;57.84;96344.25;5052041;28;20087;-63
2022/02/05 15:12:28;;;;;;;5.13;4.72;;;;;;;9.59;57.36;96357.88;5053473;28;20102;-62
2022/02/05 15:14:54;;;;;;;3.97;3.67;;;;;;;9.68;56.12;96359.81;5053991;28;20047;-62
2022/02/05 15:17:19;;;;;;;3.33;3.03;;;;;;;9.52;56.51;96354.91;5054171;28;20562;-62
2022/02/05 15:19:44;;;;;;;2.97;2.78;;;;;;;9.42;56.47;96357.41;5052554;28;20118;-62
2022/02/05 15:22:10;;;;;;;2.80;2.70;;;;;;;9.30;56.81;96353.94;5056329;28;20041;-62
2022/02/05 15:24:35;;;;;;;2.92;2.72;;;;;;;9.25;57.34;96363.13;5052363;28;20550;-63
2022/02/05 15:27:02;;;;;;;2.83;2.72;;;;;;;9.15;57.84;96358.56;5055468;28;20151;-63
2022/02/05 15:29:27;;;;;;;3.00;2.80;;;;;;;9.15;57.08;96355.94;5056171;28;20033;-62
2022/02/05 15:31:53;;;;;;;2.80;2.65;;;;;;;9.03;57.39;96352.44;5057310;28;20040;-62
2022/02/05 15:34:19;;;;;;;5.63;5.13;;;;;;;8.88;57.67;96359.69;5052761;28;20041;-62
2022/02/05 15:37:07;;;;;;;2.83;2.60;;;;;;;8.95;57.61;96351.34;5053165;28;20640;-62
2022/02/05 15:45:02;;;;;;;4.57;3.40;;;;;;;8.42;57.54;96352.56;5053970;28;20087;-62
2022/02/05 15:47:28;;;;;;;2.88;2.55;;;;;;;8.74;55.58;96358.09;5053957;28;20072;-62
2022/02/05 15:49:54;;;;;;;3.97;3.50;;;;;;;8.71;55.44;96354.84;5052177;28;20044;-62
2022/02/05 15:52:20;;;;;;;5.25;3.97;;;;;;;8.38;56.27;96359.81;5053342;28;20548;-62
2022/02/05 15:54:46;;;;;;;5.20;4.72;;;;;;;8.29;56.67;96363.13;5052780;28;20041;-62
2022/02/05 16:00:06;;;;;;;5.88;2.72;;;;;;;8.30;53.29;96370.91;5056037;28;20539;-62
2022/02/05 16:02:31;;;;;;;2.10;2.00;;;;;;;7.86;54.85;96362.63;5054230;28;20075;-62
2022/02/05 16:04:57;;;;;;;2.00;1.90;;;;;;;7.67;53.88;96373.56;5054303;28;20060;-62
2022/02/05 16:07:22;;;;;;;2.70;2.50;;;;;;;7.79;52.73;96371.03;5055247;28;20491;-62
2022/02/05 16:09:48;;;;;;;5.28;2.63;;;;;;;7.44;53.97;96388.25;5053422;28;20044;-62
2022/02/05 16:12:13;;;;;;;2.65;2.55;;;;;;;7.34;53.96;96384.59;5057323;28;20618;-62
2022/02/05 16:14:39;;;;;;;3.53;3.22;;;;;;;7.21;54.42;96393.28;5054117;28;20035;-62
2022/02/05 16:17:05;;;;;;;3.58;3.00;;;;;;;6.94;54.46;96390.72;5053010;28;20136;-61
2022/02/05 16:19:31;;;;;;;3.78;3.58;;;;;;;7.10;54.10;96388.78;5051863;28;20159;-61
2022/02/05 16:21:56;;;;;;;3.67;3.38;;;;;;;6.85;54.48;96400.88;5054404;28;20076;-62
2022/02/05 16:24:22;;;;;;;2.80;2.60;;;;;;;6.87;53.67;96401.63;5054188;28;20064;-62
2022/02/05 16:26:47;;;;;;;2.42;2.33;;;;;;;7.00;52.62;96412.13;5052590;28;20067;-61
2022/02/05 16:29:15;;;;;;;6.75;6.07;;;;;;;6.65;54.44;96412.66;5055122;28;20761;-62
2022/02/05 16:31:46;;;;;;;6.22;4.30;;;;;;;6.72;53.52;96411.31;5049135;28;20037;-61
2022/02/05 16:34:14;;;;;;;3.65;3.40;;;;;;;6.61;53.74;96420.81;5052665;28;20040;-61
2022/02/05 16:36:46;;;;;;;3.97;2.92;;;;;;;6.58;54.42;96422.69;5048929;28;20041;-61
2022/02/05 16:39:11;;;;;;;5.18;4.25;;;;;;;6.68;54.69;96422.09;5042629;28;20457;-60
2022/02/05 16:41:37;;;;;;;3.20;3.00;;;;;;;6.79;54.12;96422.22;5050066;28;20073;-61
2022/02/05 16:44:03;;;;;;;4.65;4.25;;;;;;;6.55;55.47;96420.28;5048549;28;20323;-62
2022/02/05 16:46:31;;;;;;;7.40;5.95;;;;;;;6.35;55.52;96428.56;5048915;28;20098;-61
2022/02/05 16:48:57;;;;;;;4.07;3.78;;;;;;;6.19;57.76;96436.50;5048185;28;20123;-61
2022/02/05 16:51:23;;;;;;;12.00;10.15;;;;;;;6.09;59.14;96438.88;5049295;28;20123;-62
2022/02/05 16:53:50;;;;;;;5.93;4.97;;;;;;;5.96;60.83;96437.00;5048481;28;20021;-61
2022/02/05 16:56:17;;;;;;;5.25;4.75;;;;;;;5.92;60.84;96451.19;5048217;28;20094;-61
2022/02/05 16:58:43;;;;;;;5.40;4.53;;;;;;;5.97;60.52;96449.13;5047580;28;20653;-60
2022/02/05 17:01:08;;;;;;;4.05;3.70;;;;;;;5.95;61.08;96452.75;5047197;28;20075;-61
2022/02/05 17:03:34;;;;;;;5.18;4.68;;;;;;;5.90;61.36;96449.59;5048033;28;20041;-61
2022/02/05 17:06:01;;;;;;;7.55;4.32;;;;;;;5.80;61.79;96451.94;5047183;28;20770;-61
2022/02/05 17:08:32;;;;;;;11.68;10.20;;;;;;;5.69;62.42;96456.06;5047525;28;20029;-61
2022/02/05 17:10:57;;;;;;;10.85;9.85;;;;;;;5.58;63.93;96451.47;5047556;28;20035;-62
2022/02/05 17:13:23;;;;;;;10.82;9.88;;;;;;;5.41;65.10;96462.09;5049281;28;20032;-61
2022/02/05 17:15:48;;;;;;;13.13;11.23;;;;;;;5.22;66.09;96467.56;5048004;28;20029;-61
2022/02/05 17:18:22;;;;;;;17.83;11.60;;;;;;;5.06;66.58;96463.22;5049260;28;20055;-62
2022/02/05 17:20:58;;;;;;;14.27;11.25;;;;;;;4.90;67.87;96468.50;5046492;28;20086;-61
2022/02/05 17:23:34;;;;;;;11.77;10.68;;;;;;;4.69;68.37;96471.38;5047860;28;20541;-61
2022/02/05 17:26:01;;;;;;;11.73;10.63;;;;;;;4.57;69.09;96475.53;5047530;28;20067;-62
2022/02/05 17:28:27;;;;;;;10.45;9.45;;;;;;;4.49;69.40;96476.88;5031575;28;20040;-61
2022/02/05 17:30:53;;;;;;;10.23;7.75;;;;;;;4.44;69.69;96484.94;5050167;28;20063;-60
2022/02/05 17:33:19;;;;;;;10.07;6.18;;;;;;;4.38;69.37;96480.91;5048736;28;20033;-60
2022/02/05 17:35:46;;;;;;;5.93;5.43;;;;;;;4.34;69.29;96486.38;5047471;28;20115;-61
2022/02/05 17:38:19;;;;;;;11.45;10.35;;;;;;;4.30;70.26;96483.91;5045485;28;20040;-63
2022/02/05 17:40:45;;;;;;;21.58;16.70;;;;;;;4.28;71.24;96483.16;5047290;28;20044;-60
2022/02/05 17:43:11;;;;;;;16.88;15.02;;;;;;;4.20;71.79;96495.78;5049810;28;20413;-61
2022/02/05 17:45:36;;;;;;;18.20;16.30;;;;;;;4.10;72.88;96494.59;5029428;28;20029;-61
2022/02/05 17:48:04;;;;;;;20.83;18.73;;;;;;;3.95;73.31;96491.88;5051686;28;20508;-64
2022/02/05 17:50:29;;;;;;;11.95;9.98;;;;;;;3.86;73.97;96502.78;5052387;28;20049;-63
2022/02/05 17:52:55;;;;;;;20.63;10.73;;;;;;;3.73;74.91;96515.59;5051975;28;20504;-62
2022/02/05 17:55:20;;;;;;;49.75;25.42;;;;;;;3.68;75.02;96510.66;5055687;28;20047;-62
2022/02/05 17:57:52;;;;;;;48.00;25.67;;;;;;;3.62;75.36;96521.34;5034772;28;20072;-61
2022/02/05 18:00:18;;;;;;;49.03;25.00;;;;;;;3.59;75.62;96526.72;5054092;28;20045;-62
2022/02/05 18:02:43;;;;;;;48.95;25.33;;;;;;;3.53;76.00;96532.25;5057955;28;20520;-63
2022/02/05 18:05:15;;;;;;;30.55;15.25;;;;;;;3.45;76.27;96527.44;5034262;28;20043;-64
2022/02/05 18:11:07;;;;;;;16.67;11.23;;;;;;;3.33;76.35;96535.88;4990848;28;20050;-62
2022/02/05 18:16:03;;;;;;;17.70;11.63;;;;;;;3.15;77.39;96544.50;5022313;28;20041;-65